createdAt,value
2019-05-12T00:02:10.131Z,102766.73
2019-05-12T00:04:40.416Z,102767.83
2019-05-12T00:07:10.718Z,102773.73
2019-05-12T00:09:40.948Z,102778.31
2019-05-12T00:12:11.581Z,102774.11
2019-05-12T00:14:41.916Z,102775.95
2019-05-12T00:17:12.169Z,102767.23
2019-05-12T00:19:42.590Z,102785.53
2019-05-12T00:22:15.080Z,102788.26
2019-05-12T00:24:47.758Z,102784.55
2019-05-12T00:27:20.143Z,102787.77
2019-05-12T00:29:50.567Z,102789.83
2019-05-12T00:32:20.940Z,102791.63
2019-05-12T00:34:51.534Z,102783.53
2019-05-12T00:37:21.963Z,102794.62
2019-05-12T00:39:52.319Z,102790.91
2019-05-12T00:42:22.721Z,102800.69
2019-05-12T00:44:53.090Z,102799.54
2019-05-12T00:47:23.546Z,102806.74
2019-05-12T00:49:53.897Z,102815.22
2019-05-12T00:52:24.352Z,102810.01
2019-05-12T00:54:54.769Z,102812.75
2019-05-12T00:57:25.217Z,102808.96
2019-05-12T00:59:57.916Z,102815.37
2019-05-12T01:02:28.658Z,102811.56
2019-05-12T01:04:58.947Z,102820.28
2019-05-12T01:07:29.102Z,102821.05
2019-05-12T01:10:00.990Z,102825.77
2019-05-12T01:12:31.626Z,102820.34
2019-05-12T01:15:02.012Z,102822.41
2019-05-12T01:17:32.555Z,102825.15
2019-05-12T01:20:02.936Z,102838.78
2019-05-12T01:22:33.527Z,102841.81
2019-05-12T01:25:03.902Z,102846.95
2019-05-12T01:27:34.298Z,102850.31
2019-05-12T01:30:05.579Z,102854.40
2019-05-12T01:32:38.304Z,102856.80
2019-05-12T01:35:09.973Z,102856.45
2019-05-12T01:37:40.532Z,102855.12
2019-05-12T01:40:11.150Z,102860.29
2019-05-12T01:42:41.589Z,102861.09
2019-05-12T01:45:12.379Z,102869.78
2019-05-12T01:47:42.625Z,102872.88
2019-05-12T01:50:13.143Z,102875.11
2019-05-12T01:52:43.500Z,102875.72
2019-05-12T01:55:14.146Z,102884.11
2019-05-12T01:57:44.359Z,102882.91
2019-05-12T02:00:15.308Z,102883.55
2019-05-12T02:02:47.876Z,102889.84
2019-05-12T02:05:18.316Z,102894.99
2019-05-12T02:07:51.271Z,102901.27
2019-05-12T02:10:23.073Z,102902.06
2019-05-12T02:12:53.364Z,102899.70
2019-05-12T02:15:24.171Z,102907.78
2019-05-12T02:17:54.296Z,102908.11
2019-05-12T02:20:24.605Z,102892.56
2019-05-12T02:22:54.732Z,102909.97
2019-05-12T02:25:25.013Z,102905.49
2019-05-12T02:27:55.167Z,102910.14
2019-05-12T02:30:30.421Z,102920.97
2019-05-12T02:32:59.794Z,102920.41
2019-05-12T02:35:30.024Z,102921.20
2019-05-12T02:38:00.242Z,102925.84
2019-05-12T02:40:30.534Z,102927.00
2019-05-12T02:43:01.368Z,102928.05
2019-05-12T02:45:31.499Z,102936.19
2019-05-12T02:48:04.777Z,102937.34
2019-05-12T02:50:38.317Z,102944.90
2019-05-12T02:53:08.713Z,102947.25
2019-05-12T02:55:38.974Z,102945.30
2019-05-12T02:58:10.703Z,102950.25
2019-05-12T03:00:41.315Z,102949.58
2019-05-12T03:03:14.745Z,102947.14
2019-05-12T03:05:47.062Z,102947.52
2019-05-12T03:08:26.590Z,102956.47
2019-05-12T03:11:07.381Z,102956.31
2019-05-12T03:13:37.503Z,102965.55
2019-05-12T03:16:07.645Z,102971.73
2019-05-12T03:18:37.817Z,102972.84
2019-05-12T03:21:08.109Z,102972.17
2019-05-12T03:23:38.235Z,102971.56
2019-05-12T03:26:08.391Z,102968.80
2019-05-12T03:28:38.533Z,102956.48
2019-05-12T03:31:08.969Z,102980.14
2019-05-12T03:33:43.961Z,102981.38
2019-05-12T03:36:17.233Z,102986.38
2019-05-12T03:38:44.743Z,102988.82
2019-05-12T03:41:15.082Z,102988.24
2019-05-12T03:43:45.352Z,102994.74
2019-05-12T03:46:15.841Z,103001.14
2019-05-12T03:48:46.044Z,103002.28
2019-05-12T03:51:16.908Z,103009.87
2019-05-12T03:53:47.417Z,103013.20
2019-05-12T03:56:17.910Z,103014.81
2019-05-12T03:58:48.463Z,103023.02
2019-05-12T04:01:18.810Z,103029.63
2019-05-12T04:03:49.109Z,103044.94
2019-05-12T04:06:19.188Z,103043.07
2019-05-12T04:08:49.526Z,103036.57
2019-05-12T04:11:19.868Z,103040.73
2019-05-12T04:13:50.006Z,103046.17
2019-05-12T04:16:20.359Z,103039.18
2019-05-12T04:18:50.573Z,103045.14
2019-05-12T04:21:20.874Z,103050.06
2019-05-12T04:23:51.167Z,103054.53
2019-05-12T04:26:25.048Z,103056.73
2019-05-12T04:28:54.853Z,103060.89
2019-05-12T04:31:25.323Z,103064.14
2019-05-12T04:33:55.698Z,103069.66
2019-05-12T04:36:25.958Z,103072.27
2019-05-12T04:38:56.174Z,103076.74
2019-05-12T04:41:28.685Z,103078.62
2019-05-12T04:43:58.911Z,103085.31
2019-05-12T04:46:30.367Z,103092.88
2019-05-12T04:49:01.045Z,103095.41
2019-05-12T04:51:34.667Z,103098.84
2019-05-12T04:54:05.821Z,103101.46
2019-05-12T04:56:36.378Z,103095.20
2019-05-12T04:59:07.105Z,103107.00
2019-05-12T05:01:45.082Z,103101.33
2019-05-12T05:04:15.537Z,103109.03
2019-05-12T05:06:46.879Z,103118.41
2019-05-12T05:09:17.559Z,103120.20
2019-05-12T05:11:48.152Z,103123.78
2019-05-12T05:14:19.177Z,103130.93
2019-05-12T05:16:49.733Z,103130.93
2019-05-12T05:19:20.384Z,103141.51
2019-05-12T05:21:50.935Z,103137.55
2019-05-12T05:24:23.398Z,103154.83
2019-05-12T05:26:54.110Z,103148.76
2019-05-12T05:29:24.710Z,103158.02
2019-05-12T05:31:55.238Z,103159.81
2019-05-12T05:34:34.125Z,103160.02
2019-05-12T05:37:05.186Z,103162.56
2019-05-12T05:39:47.988Z,103162.33
2019-05-12T05:42:07.884Z,103169.86
2019-05-12T05:44:38.669Z,103177.54
2019-05-12T05:49:36.041Z,103177.59
2019-05-12T05:52:07.608Z,103189.09
2019-05-12T05:54:40.182Z,103185.28
2019-05-12T05:57:20.085Z,103190.38
2019-05-12T05:59:48.800Z,103203.55
2019-05-12T06:02:25.542Z,103204.38
2019-05-12T06:04:54.166Z,103214.97
2019-05-12T06:07:34.935Z,103211.34
2019-05-12T06:09:56.416Z,103214.33
2019-05-12T06:12:26.842Z,103215.19
2019-05-12T06:14:59.791Z,103221.69
2019-05-12T06:17:29.597Z,103229.10
2019-05-12T06:20:00.119Z,103227.30
2019-05-12T06:22:30.760Z,103225.08
2019-05-12T06:25:04.515Z,103227.16
2019-05-12T06:27:35.749Z,103229.66
2019-05-12T06:30:08.164Z,103231.23
2019-05-12T06:32:41.118Z,103233.67
2019-05-12T06:35:11.263Z,103231.11
2019-05-12T06:37:44.118Z,103235.84
2019-05-12T06:40:14.262Z,103234.42
2019-05-12T06:42:48.397Z,103238.73
2019-05-12T06:45:23.494Z,103244.09
2019-05-12T06:47:56.065Z,103247.19
2019-05-12T06:50:28.614Z,103247.05
2019-05-12T06:52:58.487Z,103243.95
2019-05-12T06:55:34.523Z,103242.31
2019-05-12T06:58:01.190Z,103244.56
2019-05-12T07:00:32.656Z,103250.36
2019-05-12T07:03:04.241Z,103254.50
2019-05-12T07:05:38.295Z,103253.99
2019-05-12T07:08:07.799Z,103251.56
2019-05-12T07:10:43.384Z,103253.23
2019-05-12T07:13:14.801Z,103255.81
2019-05-12T07:15:43.920Z,103256.52
2019-05-12T07:18:17.833Z,103259.45
2019-05-12T07:20:49.632Z,103254.20
2019-05-12T07:23:25.095Z,103251.66
2019-05-12T07:25:51.691Z,103258.19
2019-05-12T07:28:23.719Z,103266.41
2019-05-12T07:30:54.621Z,103275.15
2019-05-12T07:33:25.035Z,103280.56
2019-05-12T07:36:01.478Z,103267.37
2019-05-12T07:38:29.295Z,103268.42
2019-05-12T07:41:00.842Z,103270.70
2019-05-12T07:43:33.761Z,103271.77
2019-05-12T07:46:07.279Z,103264.84
2019-05-12T07:48:40.161Z,103261.36
2019-05-12T07:51:09.722Z,103287.66
2019-05-12T07:53:39.909Z,103302.70
2019-05-12T07:56:10.126Z,103304.62
2019-05-12T07:58:40.958Z,103314.31
2019-05-12T08:01:14.407Z,103337.98
2019-05-12T08:03:44.331Z,103336.80
2019-05-12T08:06:14.618Z,103330.19
2019-05-12T08:08:50.902Z,103329.05
2019-05-12T08:11:16.788Z,103333.66
2019-05-12T08:13:47.141Z,103330.51
2019-05-12T08:16:19.626Z,103332.17
2019-05-12T08:18:49.319Z,103335.62
2019-05-12T08:21:20.710Z,103341.01
2019-05-12T08:23:53.362Z,103342.75
2019-05-12T08:26:23.946Z,103329.54
2019-05-12T08:28:54.503Z,103327.64
2019-05-12T08:31:33.121Z,103332.98
2019-05-12T08:33:57.607Z,103337.40
2019-05-12T08:36:28.174Z,103331.33
2019-05-12T08:39:05.402Z,103332.56
2019-05-12T08:41:34.123Z,103327.02
2019-05-12T08:44:04.813Z,103324.10
2019-05-12T08:46:35.007Z,103321.34
2019-05-12T08:49:05.553Z,103319.67
2019-05-12T08:51:35.902Z,103331.41
2019-05-12T08:54:08.259Z,103342.53
2019-05-12T08:56:38.691Z,103347.05
2019-05-12T08:59:14.368Z,103350.38
2019-05-12T09:01:43.693Z,103355.98
2019-05-12T09:04:18.143Z,103364.03
2019-05-12T09:06:45.250Z,103362.36
2019-05-12T09:09:15.603Z,103367.91
2019-05-12T09:11:45.902Z,103373.74
2019-05-12T09:14:16.578Z,103373.92
2019-05-12T09:16:46.900Z,103370.84
2019-05-12T09:19:23.876Z,103368.02
2019-05-12T09:21:48.861Z,103379.78
2019-05-12T09:24:21.968Z,103382.34
2019-05-12T09:26:53.690Z,103390.27
2019-05-12T09:29:25.142Z,103390.92
2019-05-12T09:31:59.234Z,103391.23
2019-05-12T09:34:27.099Z,103387.27
2019-05-12T09:36:59.666Z,103394.21
2019-05-12T09:39:34.052Z,103391.77
2019-05-12T09:42:00.829Z,103391.88
2019-05-12T09:44:31.076Z,103386.56
2019-05-12T09:47:01.368Z,103395.16
2019-05-12T09:49:39.051Z,103400.23
2019-05-12T09:52:03.715Z,103406.06
2019-05-12T09:54:40.773Z,103388.16
2019-05-12T09:57:07.241Z,103409.30
2019-05-12T09:59:38.100Z,103412.97
2019-05-12T10:02:10.527Z,103411.59
2019-05-12T10:04:40.588Z,103414.03
2019-05-12T10:07:10.812Z,103415.02
2019-05-12T10:09:44.089Z,103418.18
2019-05-12T10:12:14.187Z,103410.17
2019-05-12T10:14:45.761Z,103417.66
2019-05-12T10:17:20.212Z,103431.78
2019-05-12T10:19:48.494Z,103423.11
2019-05-12T10:22:19.812Z,103428.70
2019-05-12T10:24:56.072Z,103432.56
2019-05-12T10:27:27.209Z,103437.94
2019-05-12T10:29:54.257Z,103441.52
2019-05-12T10:32:24.507Z,103452.38
2019-05-12T10:34:54.732Z,103441.88
2019-05-12T10:37:29.170Z,103440.86
2019-05-12T10:39:56.797Z,103443.77
2019-05-12T10:42:27.000Z,103445.16
2019-05-12T10:44:57.242Z,103441.42
2019-05-12T10:47:27.402Z,103434.86
2019-05-12T10:49:57.476Z,103443.64
2019-05-12T10:52:29.532Z,103444.07
2019-05-12T10:54:59.414Z,103447.50
2019-05-12T10:57:29.711Z,103450.73
2019-05-12T10:59:59.866Z,103447.01
2019-05-12T11:02:30.665Z,103459.37
2019-05-12T11:05:01.135Z,103456.80
2019-05-12T11:07:31.236Z,103466.27
2019-05-12T11:10:05.090Z,103464.53
2019-05-12T11:12:33.378Z,103466.34
2019-05-12T11:15:08.372Z,103467.94
2019-05-12T11:17:56.511Z,103460.41
2019-05-12T11:20:26.663Z,103467.06
2019-05-12T11:22:56.807Z,103457.48
2019-05-12T11:25:26.927Z,103451.89
2019-05-12T11:27:57.196Z,103465.05
2019-05-12T11:30:27.363Z,103464.63
2019-05-12T11:32:59.713Z,103466.50
2019-05-12T11:35:30.208Z,103469.38
2019-05-12T11:38:00.315Z,103471.90
2019-05-12T11:40:30.590Z,103471.30
2019-05-12T11:43:03.538Z,103475.62
2019-05-12T11:45:33.858Z,103469.98
2019-05-12T11:48:10.145Z,103480.48
2019-05-12T11:50:40.394Z,103481.77
2019-05-12T11:53:10.271Z,103473.53
2019-05-12T11:55:40.490Z,103471.91
2019-05-12T11:58:11.704Z,103485.70
2019-05-12T12:00:44.560Z,103479.93
2019-05-12T12:03:18.188Z,103483.04
2019-05-12T12:05:47.675Z,103484.37
2019-05-12T12:08:17.729Z,103489.25
2019-05-12T12:10:49.287Z,103490.04
2019-05-12T12:13:25.675Z,103491.33
2019-05-12T12:15:51.808Z,103498.58
2019-05-12T12:18:23.537Z,103506.12
2019-05-12T12:21:02.332Z,103505.20
2019-05-12T12:23:26.143Z,103500.66
2019-05-12T12:25:56.487Z,103521.02
2019-05-12T12:28:26.557Z,103520.38
2019-05-12T12:31:00.299Z,103524.19
2019-05-12T12:33:31.073Z,103527.73
2019-05-12T12:36:01.048Z,103522.95
2019-05-12T12:38:33.140Z,103526.12
2019-05-12T12:41:03.847Z,103521.66
2019-05-12T12:43:34.169Z,103524.39
2019-05-12T12:46:10.759Z,103534.05
2019-05-12T12:48:41.235Z,103537.09
2019-05-12T12:51:14.697Z,103540.59
2019-05-12T12:53:43.856Z,103545.27
2019-05-12T12:56:16.250Z,103530.91
2019-05-12T12:58:46.229Z,103542.00
2019-05-12T13:01:26.906Z,103542.13
2019-05-12T13:03:50.145Z,103553.03
2019-05-12T13:06:20.853Z,103552.88
2019-05-12T13:08:54.228Z,103556.85
2019-05-12T13:11:33.139Z,103557.64
2019-05-12T13:13:58.230Z,103557.89
2019-05-12T13:16:28.673Z,103563.59
2019-05-12T13:19:06.149Z,103577.86
2019-05-12T13:21:33.523Z,103577.19
2019-05-12T13:24:04.031Z,103586.63
2019-05-12T13:26:36.645Z,103588.31
2019-05-12T13:29:07.554Z,103580.11
2019-05-12T13:31:41.017Z,103581.75
2019-05-12T13:34:10.524Z,103605.20
2019-05-12T13:36:41.109Z,103600.24
2019-05-12T13:39:16.201Z,103602.63
2019-05-12T13:41:43.942Z,103596.03
2019-05-12T13:44:14.676Z,103596.73
2019-05-12T13:46:48.867Z,103585.81
2019-05-12T13:49:17.953Z,103600.10
2019-05-12T13:51:50.293Z,103598.34
2019-05-12T13:54:26.149Z,103601.33
2019-05-12T13:56:53.502Z,103612.06
2019-05-12T13:59:25.497Z,103600.68
2019-05-12T14:01:56.367Z,103608.99
2019-05-12T14:04:27.782Z,103618.66
2019-05-12T14:06:58.345Z,103619.27
2019-05-12T14:09:29.184Z,103616.22
2019-05-12T14:11:59.825Z,103612.34
2019-05-12T14:14:30.648Z,103604.08
2019-05-12T14:17:01.048Z,103605.34
2019-05-12T14:19:35.636Z,103607.80
2019-05-12T14:22:12.907Z,103611.73
2019-05-12T14:24:46.439Z,103615.51
2019-05-12T14:27:14.250Z,103623.62
2019-05-12T14:29:44.780Z,103620.81
2019-05-12T14:32:17.365Z,103629.37
2019-05-12T14:34:50.982Z,103620.77
2019-05-12T14:37:19.942Z,103618.66
2019-05-12T14:39:50.574Z,103635.58
2019-05-12T14:42:26.202Z,103629.97
2019-05-12T14:44:54.094Z,103634.03
2019-05-12T14:47:29.752Z,103627.94
2019-05-12T14:49:58.505Z,103638.92
2019-05-12T14:52:28.999Z,103628.23
2019-05-12T14:54:59.614Z,103645.73
2019-05-12T14:57:37.318Z,103639.56
2019-05-12T15:00:04.027Z,103633.37
2019-05-12T15:02:34.495Z,103634.20
2019-05-12T15:05:13.871Z,103635.56
2019-05-12T15:07:50.637Z,103629.35
2019-05-12T15:10:14.925Z,103650.34
2019-05-12T15:12:45.515Z,103657.79
2019-05-12T15:15:20.647Z,103662.32
2019-05-12T15:17:48.312Z,103656.54
2019-05-12T15:20:18.788Z,103661.13
2019-05-12T15:22:51.800Z,103661.11
2019-05-12T15:25:21.840Z,103669.27
2019-05-12T15:27:54.246Z,103672.95
2019-05-12T15:30:26.789Z,103669.55
2019-05-12T15:32:56.647Z,103676.73
2019-05-12T15:35:27.023Z,103674.58
2019-05-12T15:37:57.486Z,103675.42
2019-05-12T15:40:27.999Z,103686.38
2019-05-12T15:43:00.395Z,103688.87
2019-05-12T15:45:30.275Z,103680.06
2019-05-12T15:48:00.444Z,103687.07
2019-05-12T15:50:30.669Z,103685.27
2019-05-12T15:53:00.900Z,103708.48
2019-05-12T15:55:32.838Z,103712.26
2019-05-12T15:58:05.518Z,103703.28
2019-05-12T16:00:38.124Z,103704.57
2019-05-12T16:03:06.787Z,103703.17
2019-05-12T16:05:36.953Z,103702.83
2019-05-12T16:08:07.205Z,103713.00
2019-05-12T16:10:37.283Z,103705.98
2019-05-12T16:13:07.479Z,103705.06
2019-05-12T16:15:37.618Z,103703.11
2019-05-12T16:18:09.972Z,103705.39
2019-05-12T16:20:40.081Z,103716.05
2019-05-12T16:23:17.121Z,103718.19
2019-05-12T16:25:42.782Z,103719.80
2019-05-12T16:28:18.584Z,103717.34
2019-05-12T16:30:47.349Z,103721.23
2019-05-12T16:33:22.077Z,103722.75
2019-05-12T16:35:50.941Z,103720.20
2019-05-12T16:38:23.484Z,103731.95
2019-05-12T16:40:53.946Z,103729.05
2019-05-12T16:43:24.163Z,103721.11
2019-05-12T16:45:54.355Z,103727.95
2019-05-12T16:48:30.361Z,103733.38
2019-05-12T16:51:03.339Z,103733.66
2019-05-12T16:53:34.160Z,103738.09
2019-05-12T16:56:04.423Z,103743.75
2019-05-12T16:58:35.441Z,103748.36
2019-05-12T17:01:07.064Z,103741.69
2019-05-12T17:03:37.227Z,103741.59
2019-05-12T17:06:07.479Z,103741.19
2019-05-12T17:08:37.759Z,103744.47
2019-05-12T17:11:23.273Z,103745.30
2019-05-12T17:13:39.857Z,103750.54
2019-05-12T17:16:10.162Z,103752.88
2019-05-12T17:18:40.320Z,103752.16
2019-05-12T17:21:10.707Z,103757.55
2019-05-12T17:23:40.861Z,103767.34
2019-05-12T17:26:11.077Z,103762.41
2019-05-12T17:28:43.476Z,103769.83
2019-05-12T17:31:13.176Z,103769.88
2019-05-12T17:33:43.320Z,103768.94
2019-05-12T17:36:17.693Z,103771.58
2019-05-12T17:38:45.504Z,103775.13
2019-05-12T17:41:18.039Z,103780.88
2019-05-12T17:43:56.588Z,103775.03
2019-05-12T17:46:19.494Z,103784.20
2019-05-12T17:48:49.581Z,103786.91
2019-05-12T17:51:20.433Z,103786.80
2019-05-12T17:53:53.875Z,103793.65
2019-05-12T17:56:25.268Z,103793.45
2019-05-12T17:58:55.576Z,103790.45
2019-05-12T18:01:31.357Z,103793.38
2019-05-12T18:04:20.467Z,103791.19
2019-05-12T18:06:48.753Z,103796.86
2019-05-12T18:09:20.215Z,103799.03
2019-05-12T18:11:54.337Z,103808.92
2019-05-12T18:14:27.318Z,103807.94
2019-05-12T18:17:02.927Z,103802.86
2019-05-12T18:19:26.444Z,103805.23
2019-05-12T18:22:03.211Z,103811.02
2019-05-12T18:24:28.532Z,103805.52
2019-05-12T18:27:04.130Z,103812.59
2019-05-12T18:29:30.771Z,103808.12
2019-05-12T18:32:01.120Z,103808.14
2019-05-12T18:34:33.859Z,103808.41
2019-05-12T18:37:05.388Z,103802.91
2019-05-12T18:39:35.424Z,103804.42
2019-05-12T18:42:07.138Z,103814.62
2019-05-12T18:44:37.454Z,103814.38
2019-05-12T18:47:07.726Z,103809.16
2019-05-12T18:49:42.063Z,103812.83
2019-05-12T18:52:10.296Z,103816.22
2019-05-12T18:54:45.582Z,103823.00
2019-05-12T18:57:12.743Z,103821.53
2019-05-12T18:59:46.076Z,103826.66
2019-05-12T19:02:22.764Z,103823.73
2019-05-12T19:04:46.948Z,103828.07
2019-05-12T19:07:17.024Z,103830.40
2019-05-12T19:09:47.412Z,103838.05
2019-05-12T19:12:21.611Z,103834.69
2019-05-12T19:14:52.507Z,103833.98
2019-05-12T19:17:24.155Z,103834.47
2019-05-12T19:19:59.824Z,103833.39
2019-05-12T19:22:26.431Z,103841.31
2019-05-12T19:24:59.986Z,103845.67
2019-05-12T19:27:28.526Z,103847.80
2019-05-12T19:30:01.256Z,103855.34
2019-05-12T19:32:33.604Z,103863.40
2019-05-12T19:35:09.646Z,103870.44
2019-05-12T19:37:43.064Z,103872.66
2019-05-12T19:40:18.903Z,103876.64
2019-05-12T19:43:01.841Z,103885.05
2019-05-12T19:45:25.277Z,103889.27
2019-05-12T19:47:55.793Z,103886.37
2019-05-12T19:50:26.960Z,103888.66
2019-05-12T19:52:57.522Z,103890.79
2019-05-12T19:55:28.432Z,103895.96
2019-05-12T19:58:03.162Z,103902.48
2019-05-12T20:00:32.927Z,103897.81
2019-05-12T20:03:04.464Z,103897.16
2019-05-12T20:05:35.536Z,103902.62
2019-05-12T20:08:07.290Z,103902.28
2019-05-12T20:10:44.666Z,103908.72
2019-05-12T20:13:10.000Z,103902.88
2019-05-12T20:15:43.158Z,103905.36
2019-05-12T20:18:14.695Z,103914.06
2019-05-12T20:20:45.393Z,103913.92
2019-05-12T20:25:46.703Z,103919.91
2019-05-12T20:28:17.550Z,103916.23
2019-05-12T20:30:52.356Z,103923.98
2019-05-12T20:33:20.454Z,103921.26
2019-05-12T20:35:50.919Z,103919.92
2019-05-12T20:38:27.235Z,103920.91
2019-05-12T20:40:54.259Z,103932.52
2019-05-12T20:43:32.366Z,103928.61
2019-05-12T20:45:58.394Z,103932.19
2019-05-12T20:48:31.080Z,103930.52
2019-05-12T20:51:03.348Z,103929.70
2019-05-12T20:53:36.592Z,103925.41
2019-05-12T20:56:07.228Z,103932.95
2019-05-12T20:58:43.568Z,103938.66
2019-05-12T21:01:20.215Z,103937.40
2019-05-12T21:03:52.302Z,103942.38
2019-05-12T21:06:25.575Z,103942.42
2019-05-12T21:08:56.656Z,103949.49
2019-05-12T21:11:27.391Z,103947.82
2019-05-12T21:14:01.029Z,103948.86
2019-05-12T21:16:34.721Z,103950.31
2019-05-12T21:19:07.439Z,103951.56
2019-05-12T21:21:38.457Z,103949.02
2019-05-12T21:24:05.470Z,103950.85
2019-05-12T21:26:37.862Z,103950.98
2019-05-12T21:29:07.725Z,103952.81
2019-05-12T21:31:37.814Z,103954.26
2019-05-12T21:34:13.195Z,103950.95
2019-05-12T21:36:40.086Z,103953.19
2019-05-12T21:39:10.703Z,103952.42
2019-05-12T21:41:46.377Z,103953.87
2019-05-12T21:44:14.121Z,103949.67
2019-05-12T21:46:57.286Z,103951.59
2019-05-12T21:49:16.501Z,103957.84
2019-05-12T21:51:50.575Z,103952.33
2019-05-12T21:54:19.200Z,103951.15
2019-05-12T21:56:49.590Z,103949.48
2019-05-12T21:59:19.852Z,103947.59
2019-05-12T22:01:50.253Z,103958.17
2019-05-12T22:04:20.596Z,103958.77
2019-05-12T22:06:51.261Z,103963.81
2019-05-12T22:09:23.988Z,103961.81
2019-05-12T22:11:56.371Z,103959.80
2019-05-12T22:14:30.326Z,103965.63
2019-05-12T22:17:00.147Z,103957.51
2019-05-12T22:19:31.235Z,103963.74
2019-05-12T22:22:04.353Z,103965.58
2019-05-12T22:24:38.812Z,103963.45
2019-05-12T22:27:07.218Z,103963.16
2019-05-12T22:29:37.518Z,103967.30
2019-05-12T22:32:07.754Z,103970.20
2019-05-12T22:34:41.945Z,103965.09
2019-05-12T22:37:09.962Z,103978.45
2019-05-12T22:39:40.370Z,103975.53
2019-05-12T22:42:11.487Z,103974.94
2019-05-12T22:44:43.794Z,103971.91
2019-05-12T22:47:17.532Z,103976.42
2019-05-12T22:49:46.123Z,103974.81
2019-05-12T22:52:17.490Z,103973.99
2019-05-12T22:54:50.990Z,103980.20
2019-05-12T22:57:19.694Z,103974.98
2019-05-12T22:59:50.032Z,103980.30
2019-05-12T23:02:25.395Z,103978.61
2019-05-12T23:04:55.002Z,103981.80
2019-05-12T23:07:29.735Z,103982.38
2019-05-12T23:10:00.592Z,103976.97
2019-05-12T23:12:30.160Z,103978.86
2019-05-12T23:15:03.014Z,103983.65
2019-05-12T23:17:33.853Z,103985.05
2019-05-12T23:20:04.864Z,103989.01
2019-05-12T23:22:36.802Z,103987.50
2019-05-12T23:25:11.491Z,103982.39
2019-05-12T23:27:40.447Z,103992.28
2019-05-12T23:30:15.166Z,103984.27
2019-05-12T23:32:51.333Z,103984.06
2019-05-12T23:35:16.035Z,103995.67
2019-05-12T23:37:46.400Z,103995.84
2019-05-12T23:40:16.840Z,103983.92
2019-05-12T23:42:47.155Z,103986.81
2019-05-12T23:45:17.649Z,103986.81
2019-05-12T23:47:48.059Z,103991.01
2019-05-12T23:50:18.529Z,103990.52
2019-05-12T23:52:48.913Z,103987.67
2019-05-12T23:55:19.355Z,103992.80
2019-05-12T23:57:49.690Z,103988.16
